Ever Ulysses — 9V7962 — position and weather

sailwx.info

Track history (hours):
 
Tides and Currents Weather Stations Pressure Air Temp Water Temp Dewpoint Dewpoint Depression Visibility Wind Speed Wind Dir Waves Ship Positions

Ever Ulysses

Last reported at 2018-Feb-15 13:49 UTC. Time now 2018-Feb-20 17:48 UTC.
Position N 41°40' E 141°41'.

Length 285 m; draft 11.9 m.

Type: Cargo ship. MMSI: 564442000.

Date/timePositionNaut miles runAvg speedWind from/ knotsBaromVisibWave heightAir tempDewpointWater temp
2018-Feb-15 13:49N 41°40' E 141°41'619.6
2018-Feb-15 13:29N 41°40' E 141°33'919.3
2018-Feb-15 13:00N 41°38' E 141°20'1019.5
2018-Feb-15 12:30N 41°37' E 141°07'1021.0
2018-Feb-15 12:00N 41°37' E 140°53'919.0
2018-Feb-15 11:30N 41°33' E 140°42'1020.1
2018-Feb-15 11:00N 41°27' E 140°31'1020.6
2018-Feb-15 10:30N 41°20' E 140°21'1219.2
2018-Feb-15 09:54N 41°13' E 140°09'61020.5
2018-Feb-14 04:10N 34°35' E 130°23'422.5
2018-Feb-14 04:00N 34°33' E 130°19'1122.8
2018-Feb-14 03:31N 34°26' E 130°09'1122.7
2018-Feb-14 03:00N 34°18' E 129°58'  
2018-Feb-10 05:40N 31°05' E 122°31'312.4
2018-Feb-10 05:27N 31°06' E 122°27'511.2
2018-Feb-10 04:58N 31°06' E 122°21'1213.2
2018-Feb-10 04:02N 31°12' E 122°09'114.8
2018-Feb-10 03:59N 31°12' E 122°08'814.2
2018-Feb-10 03:23N 31°15' E 121°58'614.8
2018-Feb-10 03:00N 31°16' E 121°52'814.0
2018-Feb-10 02:25N 31°19' E 121°43'511.9
2018-Feb-10 01:58N 31°22' E 121°38'2 2.4
2018-Feb-10 01:06N 31°22' E 121°35'0 0.0
2018-Feb-09 10:30N 31°23' E 121°35'360 7.1
2018-Feb-07 08:04N 25°24' E 120°55'116.1
2018-Feb-07 08:00N 25°23' E 120°54'815.5
2018-Feb-07 07:30N 25°16' E 120°50'1015.2
2018-Feb-07 06:52N 25°08' E 120°45'714.6
2018-Feb-07 06:24N 25°02' E 120°41'8316.1
2018-Feb-07 01:15N 23°50' E 119°56'619.1
2018-Feb-07 00:57N 23°44' E 119°55'818.5
2018-Feb-07 00:30N 23°36' E 119°56'917.8
2018-Feb-07 00:00N 23°27' E 119°56'918.1
2018-Feb-06 23:30N 23°18' E 119°55'1517.7
2018-Feb-06 22:39N 23°03' E 119°55'316.5
2018-Feb-06 22:28N 22°60' E 119°55'816.9
2018-Feb-06 22:00N 22°52' E 119°57'917.4
2018-Feb-06 21:30N 22°44' E 119°59'816.4
2018-Feb-06 21:00N 22°36' E 120°02'917.3
2018-Feb-06 20:30N 22°33' E 120°11'714.1
2018-Feb-06 20:00N 22°33' E 120°19'0 0.6
2018-Feb-06 19:28N 22°33' E 120°19'0 0.0
2018-Feb-06 18:58N 22°33' E 120°19'0 0.0
2018-Feb-06 18:25N 22°33' E 120°19'0 0.0
2018-Feb-06 17:49N 22°33' E 120°19'0 0.0
2018-Feb-06 17:28N 22°33' E 120°19'0 0.0
2018-Feb-06 16:58N 22°33' E 120°19'0 0.0
2018-Feb-06 16:28N 22°33' E 120°19'0 0.0
2018-Feb-06 15:58N 22°33' E 120°19'0 0.0
2018-Feb-06 15:28N 22°33' E 120°19'0 0.0
2018-Feb-06 14:55N 22°33' E 120°19'0 0.0
2018-Feb-06 14:28N 22°33' E 120°19'0 0.0
2018-Feb-06 13:58N 22°33' E 120°19'0 0.0
2018-Feb-06 13:28N 22°33' E 120°19'0 0.0
2018-Feb-06 12:58N 22°33' E 120°19'0 0.0
2018-Feb-06 12:28N 22°33' E 120°19'0 0.0
2018-Feb-06 11:58N 22°33' E 120°19'0 0.0
2018-Feb-06 11:22N 22°33' E 120°19'0 0.1
2018-Feb-06 10:58N 22°33' E 120°19'0 0.0
2018-Feb-06 10:28N 22°33' E 120°19'0 0.0
2018-Feb-06 09:58N 22°33' E 120°19'0 0.0
2018-Feb-06 09:28N 22°33' E 120°19'0 0.0
2018-Feb-06 08:58N 22°33' E 120°19'0 0.0
2018-Feb-06 08:28N 22°33' E 120°19'0 0.0
2018-Feb-06 07:58N 22°33' E 120°19'0 0.0
2018-Feb-06 07:28N 22°33' E 120°19'0 0.0
2018-Feb-06 06:58N 22°33' E 120°19'0 0.0
2018-Feb-06 06:28N 22°33' E 120°19'0 0.0
2018-Feb-06 05:58N 22°33' E 120°19'0 0.0
2018-Feb-06 05:28N 22°33' E 120°19'0 0.0
2018-Feb-06 04:58N 22°33' E 120°19'0 0.0
2018-Feb-06 04:28N 22°33' E 120°19'0 0.5
2018-Feb-06 04:00N 22°33' E 120°19'3 6.2
2018-Feb-06 03:30N 22°33' E 120°16'3 6.2
2018-Feb-06 03:00N 22°32' E 120°13'4 8.3
2018-Feb-06 02:30N 22°31' E 120°08'4 7.3
2018-Feb-06 02:00N 22°30' E 120°04'5 9.8
2018-Feb-06 01:30N 22°29' E 119°59'510.2
2018-Feb-06 01:00N 22°29' E 119°54'510.2
2018-Feb-06 00:30N 22°28' E 119°48'812.7
2018-Feb-05 23:53N 22°27' E 119°40'  
Track history (hours):
 
Tides and Currents Weather Stations Pressure Air Temp Water Temp Dewpoint Dewpoint Depression Visibility Wind Speed Wind Dir Waves Ship Positions

Ever Ulysses

Last reported at 2018-Feb-15 13:49 UTC. Time now 2018-Feb-20 17:48 UTC.
Position N 41°40' E 141°41'.

Length 285 m; draft 11.9 m.

Type: Cargo ship. MMSI: 564442000.

Date/timePositionNaut miles runAvg speedWind from/ knotsBaromVisibWave heightAir tempDewpointWater temp
2018-Feb-15 13:49N 41°40' E 141°41'619.6
2018-Feb-15 13:29N 41°40' E 141°33'919.3
2018-Feb-15 13:00N 41°38' E 141°20'1019.5
2018-Feb-15 12:30N 41°37' E 141°07'1021.0
2018-Feb-15 12:00N 41°37' E 140°53'919.0
2018-Feb-15 11:30N 41°33' E 140°42'1020.1
2018-Feb-15 11:00N 41°27' E 140°31'1020.6
2018-Feb-15 10:30N 41°20' E 140°21'1219.2
2018-Feb-15 09:54N 41°13' E 140°09'61020.5
2018-Feb-14 04:10N 34°35' E 130°23'422.5
2018-Feb-14 04:00N 34°33' E 130°19'1122.8
2018-Feb-14 03:31N 34°26' E 130°09'1122.7
2018-Feb-14 03:00N 34°18' E 129°58'  
2018-Feb-10 05:40N 31°05' E 122°31'312.4
2018-Feb-10 05:27N 31°06' E 122°27'511.2
2018-Feb-10 04:58N 31°06' E 122°21'1213.2
2018-Feb-10 04:02N 31°12' E 122°09'114.8
2018-Feb-10 03:59N 31°12' E 122°08'814.2
2018-Feb-10 03:23N 31°15' E 121°58'614.8
2018-Feb-10 03:00N 31°16' E 121°52'814.0
2018-Feb-10 02:25N 31°19' E 121°43'511.9
2018-Feb-10 01:58N 31°22' E 121°38'2 2.4
2018-Feb-10 01:06N 31°22' E 121°35'0 0.0
2018-Feb-09 10:30N 31°23' E 121°35'360 7.1
2018-Feb-07 08:04N 25°24' E 120°55'116.1
2018-Feb-07 08:00N 25°23' E 120°54'815.5
2018-Feb-07 07:30N 25°16' E 120°50'1015.2
2018-Feb-07 06:52N 25°08' E 120°45'714.6
2018-Feb-07 06:24N 25°02' E 120°41'8316.1
2018-Feb-07 01:15N 23°50' E 119°56'619.1
2018-Feb-07 00:57N 23°44' E 119°55'818.5
2018-Feb-07 00:30N 23°36' E 119°56'917.8
2018-Feb-07 00:00N 23°27' E 119°56'918.1
2018-Feb-06 23:30N 23°18' E 119°55'1517.7
2018-Feb-06 22:39N 23°03' E 119°55'316.5
2018-Feb-06 22:28N 22°60' E 119°55'816.9
2018-Feb-06 22:00N 22°52' E 119°57'917.4
2018-Feb-06 21:30N 22°44' E 119°59'816.4
2018-Feb-06 21:00N 22°36' E 120°02'917.3
2018-Feb-06 20:30N 22°33' E 120°11'714.1
2018-Feb-06 20:00N 22°33' E 120°19'0 0.6
2018-Feb-06 19:28N 22°33' E 120°19'0 0.0
2018-Feb-06 18:58N 22°33' E 120°19'0 0.0
2018-Feb-06 18:25N 22°33' E 120°19'0 0.0
2018-Feb-06 17:49N 22°33' E 120°19'0 0.0
2018-Feb-06 17:28N 22°33' E 120°19'0 0.0
2018-Feb-06 16:58N 22°33' E 120°19'0 0.0
2018-Feb-06 16:28N 22°33' E 120°19'0 0.0
2018-Feb-06 15:58N 22°33' E 120°19'0 0.0
2018-Feb-06 15:28N 22°33' E 120°19'0 0.0
2018-Feb-06 14:55N 22°33' E 120°19'0 0.0
2018-Feb-06 14:28N 22°33' E 120°19'0 0.0
2018-Feb-06 13:58N 22°33' E 120°19'0 0.0
2018-Feb-06 13:28N 22°33' E 120°19'0 0.0
2018-Feb-06 12:58N 22°33' E 120°19'0 0.0
2018-Feb-06 12:28N 22°33' E 120°19'0 0.0
2018-Feb-06 11:58N 22°33' E 120°19'0 0.0
2018-Feb-06 11:22N 22°33' E 120°19'0 0.1
2018-Feb-06 10:58N 22°33' E 120°19'0 0.0
2018-Feb-06 10:28N 22°33' E 120°19'0 0.0
2018-Feb-06 09:58N 22°33' E 120°19'0 0.0
2018-Feb-06 09:28N 22°33' E 120°19'0 0.0
2018-Feb-06 08:58N 22°33' E 120°19'0 0.0
2018-Feb-06 08:28N 22°33' E 120°19'0 0.0
2018-Feb-06 07:58N 22°33' E 120°19'0 0.0
2018-Feb-06 07:28N 22°33' E 120°19'0 0.0
2018-Feb-06 06:58N 22°33' E 120°19'0 0.0
2018-Feb-06 06:28N 22°33' E 120°19'0 0.0
2018-Feb-06 05:58N 22°33' E 120°19'0 0.0
2018-Feb-06 05:28N 22°33' E 120°19'0 0.0
2018-Feb-06 04:58N 22°33' E 120°19'0 0.0
2018-Feb-06 04:28N 22°33' E 120°19'0 0.5
2018-Feb-06 04:00N 22°33' E 120°19'3 6.2
2018-Feb-06 03:30N 22°33' E 120°16'3 6.2
2018-Feb-06 03:00N 22°32' E 120°13'4 8.3
2018-Feb-06 02:30N 22°31' E 120°08'4 7.3
2018-Feb-06 02:00N 22°30' E 120°04'5 9.8
2018-Feb-06 01:30N 22°29' E 119°59'510.2
2018-Feb-06 01:00N 22°29' E 119°54'510.2
2018-Feb-06 00:30N 22°28' E 119°48'812.7
2018-Feb-05 23:53N 22°27' E 119°40'  

Dump ship's entire track history